createdAt,value
2018-09-05T00:00:39.607Z,3.27
2018-09-05T00:03:08.739Z,3.00
2018-09-05T00:05:37.911Z,3.40
2018-09-05T00:08:07.133Z,3.40
2018-09-05T00:10:36.909Z,4.17
2018-09-05T00:13:06.282Z,2.93
2018-09-05T00:15:35.372Z,5.83
2018-09-05T00:18:04.542Z,3.30
2018-09-05T00:20:33.633Z,2.87
2018-09-05T00:23:02.878Z,4.17
2018-09-05T00:25:32.030Z,3.67
2018-09-05T00:28:01.208Z,4.87
2018-09-05T00:30:30.351Z,5.13
2018-09-05T00:32:59.609Z,3.97
2018-09-05T00:35:28.683Z,5.27
2018-09-05T00:37:57.793Z,4.50
2018-09-05T00:40:26.889Z,5.90
2018-09-05T00:42:55.974Z,5.23
2018-09-05T00:45:24.987Z,4.40
2018-09-05T00:47:54.691Z,4.40
2018-09-05T00:50:24.819Z,4.57
2018-09-05T00:52:53.929Z,6.17
2018-09-05T00:55:23.039Z,4.87
2018-09-05T00:57:52.203Z,4.53
2018-09-05T01:00:21.377Z,5.67
2018-09-05T01:02:50.530Z,7.43
2018-09-05T01:05:19.582Z,5.67
2018-09-05T01:07:48.725Z,4.43
2018-09-05T01:10:17.873Z,6.30
2018-09-05T01:12:47.099Z,7.27
2018-09-05T01:15:16.273Z,7.17
2018-09-05T01:17:45.451Z,7.70
2018-09-05T01:20:15.652Z,5.97
2018-09-05T01:22:44.785Z,7.13
2018-09-05T01:25:13.867Z,6.57
2018-09-05T01:27:43.014Z,7.93
2018-09-05T01:30:12.138Z,10.00
2018-09-05T01:32:42.431Z,10.10
2018-09-05T01:35:11.550Z,11.00
2018-09-05T01:37:40.814Z,14.63
2018-09-05T01:40:09.908Z,13.77
2018-09-05T01:42:39.098Z,13.87
2018-09-05T01:45:08.278Z,14.43
2018-09-05T01:47:37.449Z,15.47
2018-09-05T01:50:07.042Z,12.77
2018-09-05T01:52:36.138Z,15.43
2018-09-05T01:55:05.323Z,14.20
2018-09-05T01:57:34.435Z,14.33
2018-09-05T02:00:03.591Z,15.00
2018-09-05T02:02:32.629Z,17.97
2018-09-05T02:05:01.907Z,14.47
2018-09-05T02:07:30.925Z,18.10
2018-09-05T02:09:59.991Z,13.13
2018-09-05T02:12:29.233Z,16.20
2018-09-05T02:14:58.355Z,14.43
2018-09-05T02:17:27.408Z,15.07
2018-09-05T02:19:56.504Z,17.60
2018-09-05T02:22:25.934Z,13.73
2018-09-05T02:24:55.056Z,15.73
2018-09-05T02:27:24.124Z,14.87
2018-09-05T02:29:53.182Z,13.93
2018-09-05T02:32:22.268Z,15.53
2018-09-05T02:34:51.706Z,16.03
2018-09-05T02:37:20.719Z,16.87
2018-09-05T02:39:49.769Z,16.80
2018-09-05T02:42:18.801Z,16.37
2018-09-05T02:44:47.903Z,13.70
2018-09-05T02:47:17.022Z,15.90
2018-09-05T02:49:46.178Z,16.47
2018-09-05T02:52:15.267Z,14.27
2018-09-05T02:54:44.291Z,14.27
2018-09-05T02:57:13.423Z,13.43
2018-09-05T02:59:42.588Z,15.70
2018-09-05T03:02:11.727Z,15.17
2018-09-05T03:04:40.801Z,15.90
2018-09-05T03:07:09.823Z,14.93
2018-09-05T03:09:39.028Z,15.90
2018-09-05T03:12:08.404Z,16.53
2018-09-05T03:14:37.399Z,16.43
2018-09-05T03:17:06.591Z,15.07
2018-09-05T03:19:36.204Z,15.77
2018-09-05T03:22:05.318Z,14.93
2018-09-05T03:24:34.464Z,17.20
2018-09-05T03:27:03.588Z,18.90
2018-09-05T03:29:32.607Z,16.30
2018-09-05T03:32:01.637Z,16.90
2018-09-05T03:34:30.665Z,16.93
2018-09-05T03:36:59.669Z,16.80
2018-09-05T03:39:28.762Z,13.30
2018-09-05T03:41:57.799Z,14.97
2018-09-05T03:44:26.860Z,15.67
2018-09-05T03:46:55.848Z,13.00
2018-09-05T03:49:24.960Z,16.60
2018-09-05T03:51:54.348Z,14.13
2018-09-05T03:54:24.276Z,14.20
2018-09-05T03:56:53.320Z,13.77
2018-09-05T03:59:23.291Z,14.40
2018-09-05T04:01:52.380Z,16.50
2018-09-05T04:04:21.416Z,15.30
2018-09-05T04:06:50.435Z,16.93
2018-09-05T04:09:19.503Z,13.97
2018-09-05T04:11:48.496Z,13.47
2018-09-05T04:14:17.581Z,11.00
2018-09-05T04:16:46.688Z,15.73
2018-09-05T04:19:15.672Z,14.33
2018-09-05T04:21:44.863Z,13.77
2018-09-05T04:24:14.340Z,14.63
2018-09-05T04:26:43.355Z,13.97
2018-09-05T04:29:12.396Z,15.37
2018-09-05T04:31:42.035Z,14.83
2018-09-05T04:34:11.097Z,15.07
2018-09-05T04:36:40.201Z,14.03
2018-09-05T04:39:10.483Z,13.90
2018-09-05T04:41:40.761Z,15.77
2018-09-05T04:44:09.928Z,18.07
2018-09-05T04:46:38.994Z,15.43
2018-09-05T04:49:08.066Z,15.33
2018-09-05T04:51:37.832Z,15.50
2018-09-05T04:54:07.072Z,11.83
2018-09-05T04:56:36.214Z,14.97
2018-09-05T04:59:05.324Z,12.13
2018-09-05T05:01:34.399Z,13.33
2018-09-05T05:04:03.536Z,12.20
2018-09-05T05:06:33.391Z,15.93
2018-09-05T05:09:02.497Z,16.97
2018-09-05T05:11:31.528Z,17.47
2018-09-05T05:14:01.160Z,17.07
2018-09-05T05:16:30.232Z,15.63
2018-09-05T05:18:59.283Z,15.13
2018-09-05T05:21:28.428Z,16.97
2018-09-05T05:23:57.497Z,15.20
2018-09-05T05:26:26.548Z,15.53
2018-09-05T05:28:55.641Z,15.57
2018-09-05T05:31:24.841Z,14.40
2018-09-05T05:33:53.982Z,14.40
2018-09-05T05:36:22.993Z,16.70
2018-09-05T05:38:52.098Z,15.97
2018-09-05T05:41:21.510Z,14.30
2018-09-05T05:43:50.601Z,18.73
2018-09-05T05:46:19.813Z,15.97
2018-09-05T05:48:48.849Z,15.73
2018-09-05T05:51:18.898Z,20.57
2018-09-05T05:53:47.937Z,14.13
2018-09-05T05:56:16.933Z,14.30
2018-09-05T05:58:45.987Z,15.90
2018-09-05T06:01:15.082Z,14.10
2018-09-05T06:03:44.104Z,22.10
2018-09-05T06:06:13.193Z,14.80
2018-09-05T06:08:42.221Z,16.33
2018-09-05T06:11:11.279Z,14.23
2018-09-05T06:13:40.361Z,14.00
2018-09-05T06:16:09.362Z,11.53
2018-09-05T06:18:38.796Z,15.93
2018-09-05T06:21:07.929Z,14.23
2018-09-05T06:23:36.977Z,15.00
2018-09-05T06:26:06.187Z,16.27
2018-09-05T06:28:38.787Z,14.87
2018-09-05T06:31:18.556Z,13.17
2018-09-05T06:36:23.397Z,13.90
2018-09-05T06:38:52.448Z,16.20
2018-09-05T06:41:21.419Z,15.07
2018-09-05T06:43:50.411Z,17.50
2018-09-05T06:46:19.811Z,15.37
2018-09-05T06:48:48.900Z,14.43
2018-09-05T06:51:19.082Z,17.30
2018-09-05T06:53:48.272Z,14.50
2018-09-05T06:56:18.122Z,16.87
2018-09-05T06:58:47.746Z,13.30
2018-09-05T07:01:17.002Z,14.63
2018-09-05T07:03:46.411Z,15.33
2018-09-05T07:06:15.460Z,10.27
2018-09-05T07:08:44.465Z,11.40
2018-09-05T07:11:20.701Z,13.63
2018-09-05T07:13:50.071Z,19.30
2018-09-05T07:16:19.253Z,10.13
2018-09-05T07:18:48.364Z,11.73
2018-09-05T07:21:17.482Z,9.97
2018-09-05T07:23:46.607Z,12.10
2018-09-05T07:26:15.668Z,10.70
2018-09-05T07:28:44.713Z,10.33
2018-09-05T07:31:13.941Z,15.83
2018-09-05T07:33:43.007Z,9.30
2018-09-05T07:36:13.073Z,8.03
2018-09-05T07:38:42.320Z,10.33
2018-09-05T07:41:11.629Z,10.93
2018-09-05T07:43:40.849Z,8.17
2018-09-05T07:46:09.931Z,12.87
2018-09-05T07:48:39.371Z,9.53
2018-09-05T07:51:08.739Z,8.13
2018-09-05T07:53:42.897Z,9.40
2018-09-05T07:56:22.487Z,7.70
2018-09-05T07:58:54.579Z,8.13
2018-09-05T08:01:23.741Z,8.97
2018-09-05T08:03:55.290Z,10.03
2018-09-05T08:06:25.817Z,9.45
2018-09-05T08:08:54.883Z,11.03
2018-09-05T08:11:24.380Z,8.33
2018-09-05T08:13:53.525Z,9.75
2018-09-05T08:16:22.722Z,8.53
2018-09-05T08:18:52.891Z,11.63
2018-09-05T08:21:22.072Z,8.30
2018-09-05T08:23:52.013Z,8.20
2018-09-05T08:26:21.225Z,9.17
2018-09-05T08:28:50.399Z,9.07
2018-09-05T08:31:22.887Z,10.03
2018-09-05T08:33:57.537Z,8.53
2018-09-05T08:36:27.283Z,9.90
2018-09-05T08:38:57.994Z,8.90
2018-09-05T08:41:29.541Z,10.43
2018-09-05T08:43:59.159Z,12.17
2018-09-05T08:46:28.567Z,12.43
2018-09-05T08:49:12.589Z,11.37
2018-09-05T08:51:43.047Z,12.77
2018-09-05T08:54:12.336Z,12.93
2018-09-05T08:56:41.469Z,16.20
2018-09-05T08:59:10.986Z,10.27
2018-09-05T09:01:40.331Z,10.17
2018-09-05T09:04:09.532Z,12.70
2018-09-05T09:06:38.692Z,13.93
2018-09-05T09:09:09.827Z,13.97
2018-09-05T09:11:40.132Z,6.93
2018-09-05T09:14:10.097Z,7.83
2018-09-05T09:16:39.354Z,6.53
2018-09-05T09:19:08.801Z,6.23
2018-09-05T09:21:38.387Z,6.30
2018-09-05T09:38:04.817Z,7.27
2018-09-05T09:40:33.913Z,7.53
2018-09-05T09:43:03.104Z,4.53
2018-09-05T09:45:32.220Z,8.27
2018-09-05T09:48:01.358Z,4.83
2018-09-05T09:50:31.136Z,7.67
2018-09-05T09:53:00.768Z,6.93
2018-09-05T09:55:29.990Z,6.63
2018-09-05T09:57:59.131Z,5.20
2018-09-05T10:00:33.163Z,3.67
2018-09-05T10:03:07.454Z,2.80
2018-09-05T10:05:49.083Z,2.97
2018-09-05T10:08:23.362Z,4.97
2018-09-05T10:10:57.356Z,6.37
2018-09-05T10:13:31.982Z,3.47
2018-09-05T10:16:05.991Z,4.60
2018-09-05T10:18:38.285Z,3.77
2018-09-05T10:21:07.645Z,6.50
2018-09-05T10:23:36.879Z,3.97
2018-09-05T10:26:09.982Z,5.53
2018-09-05T10:28:39.121Z,5.33
2018-09-05T10:31:08.252Z,3.27
2018-09-05T10:33:38.415Z,3.57
2018-09-05T10:36:08.555Z,3.60
2018-09-05T10:38:37.630Z,2.07
2018-09-05T10:41:07.353Z,2.90
2018-09-05T10:43:36.453Z,4.60
2018-09-05T10:46:06.988Z,3.07
2018-09-05T10:48:36.925Z,3.33
2018-09-05T10:51:06.186Z,4.07
2018-09-05T10:53:35.749Z,1.97
2018-09-05T10:56:06.986Z,4.00
2018-09-05T10:58:36.321Z,1.80
2018-09-05T11:01:05.976Z,7.20
2018-09-05T11:03:47.610Z,2.37
2018-09-05T11:06:16.986Z,1.47
2018-09-05T11:08:46.731Z,4.33
2018-09-05T11:11:15.939Z,2.87
2018-09-05T11:13:47.518Z,3.23
2018-09-05T11:16:16.781Z,3.10
2018-09-05T11:18:47.316Z,3.40
2018-09-05T11:21:16.581Z,6.90
2018-09-05T11:23:46.053Z,5.20
2018-09-05T11:26:15.828Z,2.67
2018-09-05T11:28:45.047Z,3.93
2018-09-05T11:31:14.078Z,4.93
2018-09-05T11:33:43.437Z,3.10
2018-09-05T11:36:12.572Z,1.47
2018-09-05T11:38:41.939Z,2.00
2018-09-05T11:41:14.341Z,1.73
2018-09-05T11:43:43.953Z,2.80
2018-09-05T11:46:15.806Z,1.83
2018-09-05T11:48:44.884Z,1.53
2018-09-05T11:51:13.974Z,1.77
2018-09-05T11:53:43.069Z,5.23
2018-09-05T11:56:12.218Z,2.70
2018-09-05T11:58:41.271Z,2.27
2018-09-05T12:01:11.259Z,2.93
2018-09-05T12:03:40.502Z,1.57
2018-09-05T12:06:09.681Z,1.97
2018-09-05T12:08:38.845Z,2.40
2018-09-05T12:11:09.006Z,1.63
2018-09-05T12:13:38.032Z,1.70
2018-09-05T12:16:08.071Z,3.23
2018-09-05T12:18:37.275Z,2.67
2018-09-05T12:21:06.973Z,2.27
2018-09-05T12:23:36.960Z,1.53
2018-09-05T12:26:06.934Z,3.53
2018-09-05T12:28:36.157Z,1.57
2018-09-05T12:31:05.977Z,2.93
2018-09-05T12:33:35.557Z,2.83
2018-09-05T12:36:07.354Z,1.10
2018-09-05T12:38:37.552Z,2.37
2018-09-05T12:41:08.508Z,0.67
2018-09-05T12:43:37.793Z,2.00
2018-09-05T12:46:06.837Z,2.80
2018-09-05T12:48:35.947Z,0.87
2018-09-05T12:51:05.143Z,2.90
2018-09-05T12:53:34.406Z,3.53
2018-09-05T12:56:03.579Z,2.23
2018-09-05T12:58:32.957Z,6.27
2018-09-05T13:01:02.204Z,1.17
2018-09-05T13:03:35.935Z,1.50
2018-09-05T13:06:06.099Z,2.53
2018-09-05T13:08:47.043Z,1.77
2018-09-05T13:11:24.134Z,3.50
2018-09-05T13:13:53.392Z,2.27
2018-09-05T13:16:22.413Z,2.90
2018-09-05T13:18:51.448Z,3.97
2018-09-05T13:24:01.736Z,2.27
2018-09-05T13:26:30.823Z,3.07
2018-09-05T13:29:00.060Z,2.20
2018-09-05T13:31:29.132Z,5.00
2018-09-05T13:33:58.233Z,3.40
2018-09-05T13:36:28.029Z,1.20
2018-09-05T13:38:57.991Z,2.90
2018-09-05T13:41:27.992Z,4.00
2018-09-05T13:43:58.933Z,2.83
2018-09-05T13:46:28.967Z,4.83
2018-09-05T13:48:58.180Z,4.20
2018-09-05T13:51:27.269Z,3.50
2018-09-05T13:53:56.368Z,2.67
2018-09-05T13:56:25.839Z,1.87
2018-09-05T13:58:55.143Z,1.80
2018-09-05T14:01:24.500Z,1.50
2018-09-05T14:03:54.531Z,2.87
2018-09-05T14:06:23.780Z,4.37
2018-09-05T14:08:52.959Z,4.43
2018-09-05T14:11:22.078Z,2.40
2018-09-05T14:13:58.103Z,3.33
2018-09-05T14:16:27.440Z,2.47
2018-09-05T14:18:56.622Z,4.67
2018-09-05T14:21:26.078Z,3.10
2018-09-05T14:23:55.380Z,4.00
2018-09-05T14:26:24.544Z,1.47
2018-09-05T14:28:54.641Z,2.67
2018-09-05T14:31:25.386Z,7.43
2018-09-05T14:33:54.832Z,3.13
2018-09-05T14:36:24.763Z,2.23
2018-09-05T14:38:53.868Z,2.80
2018-09-05T14:41:23.156Z,3.67
2018-09-05T14:43:52.999Z,4.03
2018-09-05T14:46:22.130Z,5.10
2018-09-05T14:48:51.205Z,3.13
2018-09-05T14:51:22.000Z,3.43
2018-09-05T14:53:56.394Z,3.87
2018-09-05T14:56:25.509Z,3.73
2018-09-05T14:58:54.607Z,3.37
2018-09-05T15:01:23.681Z,2.30
2018-09-05T15:03:53.028Z,4.17
2018-09-05T15:06:30.992Z,4.07
2018-09-05T15:08:59.983Z,2.60
2018-09-05T15:11:29.120Z,1.73
2018-09-05T15:13:58.385Z,5.33
2018-09-05T15:16:27.612Z,2.20
2018-09-05T15:18:56.647Z,3.43
2018-09-05T15:21:25.653Z,4.73
2018-09-05T15:23:54.690Z,3.07
2018-09-05T15:26:23.809Z,2.53
2018-09-05T15:28:53.052Z,3.77
2018-09-05T15:31:22.558Z,2.03
2018-09-05T15:33:51.848Z,3.27
2018-09-05T15:36:21.975Z,3.57
2018-09-05T15:38:51.073Z,1.67
2018-09-05T15:41:21.313Z,6.57
2018-09-05T15:43:51.445Z,3.90
2018-09-05T15:46:21.086Z,2.30
2018-09-05T15:48:52.312Z,4.17
2018-09-05T15:51:23.505Z,2.57
2018-09-05T15:53:53.715Z,4.53
2018-09-05T15:56:22.954Z,4.67
2018-09-05T15:58:52.228Z,3.17
2018-09-05T16:01:23.882Z,5.17
2018-09-05T16:04:00.843Z,2.10
2018-09-05T16:06:30.950Z,4.67
2018-09-05T16:09:17.916Z,4.87
2018-09-05T16:11:48.151Z,3.30
2018-09-05T16:14:17.411Z,5.13
2018-09-05T16:16:54.025Z,3.07
2018-09-05T16:19:23.442Z,4.17
2018-09-05T16:24:25.719Z,2.10
2018-09-05T16:26:55.094Z,8.87
2018-09-05T16:29:26.307Z,3.20
2018-09-05T16:31:55.448Z,2.30
2018-09-05T16:34:24.591Z,4.17
2018-09-05T16:36:53.584Z,3.43
2018-09-05T16:39:22.713Z,7.30
2018-09-05T16:41:51.901Z,3.93
2018-09-05T16:44:20.966Z,4.47
2018-09-05T16:46:50.408Z,3.83
2018-09-05T16:49:20.603Z,5.47
2018-09-05T16:51:49.721Z,4.63
2018-09-05T16:54:18.888Z,2.37
2018-09-05T16:56:47.959Z,6.60
2018-09-05T16:59:17.077Z,2.90
2018-09-05T17:01:46.201Z,4.60
2018-09-05T17:04:15.295Z,2.57
2018-09-05T17:06:44.356Z,3.40
2018-09-05T17:09:13.945Z,2.73
2018-09-05T17:11:43.187Z,2.40
2018-09-05T17:14:13.219Z,5.47
2018-09-05T17:16:42.482Z,3.77
2018-09-05T17:19:11.550Z,5.70
2018-09-05T17:21:40.611Z,3.17
2018-09-05T17:24:09.753Z,5.00
2018-09-05T17:26:38.956Z,4.53
2018-09-05T17:29:08.626Z,5.57
2018-09-05T17:31:38.040Z,6.43
2018-09-05T17:34:07.282Z,2.60
2018-09-05T17:36:36.580Z,2.73
2018-09-05T17:39:08.394Z,7.60
2018-09-05T17:41:37.488Z,2.33
2018-09-05T17:44:06.535Z,3.10
2018-09-05T17:46:35.666Z,4.40
2018-09-05T17:49:04.918Z,3.23
2018-09-05T17:51:35.017Z,5.27
2018-09-05T17:54:04.502Z,8.27
2018-09-05T17:56:33.621Z,7.50
2018-09-05T17:59:02.726Z,2.97
2018-09-05T18:01:32.806Z,6.67
2018-09-05T18:04:01.853Z,4.40
2018-09-05T18:06:30.855Z,2.00
2018-09-05T18:08:59.884Z,5.60
2018-09-05T18:11:28.955Z,2.60
2018-09-05T18:13:58.055Z,6.90
2018-09-05T18:16:27.057Z,5.20
2018-09-05T18:18:56.253Z,2.60
2018-09-05T18:21:25.534Z,6.47
2018-09-05T18:23:54.682Z,5.07
2018-09-05T18:26:24.255Z,9.83
2018-09-05T18:28:53.384Z,4.40
2018-09-05T18:31:22.410Z,6.27
2018-09-05T18:33:51.737Z,5.00
2018-09-05T18:36:20.720Z,6.77
2018-09-05T18:38:49.871Z,5.13
2018-09-05T18:41:19.068Z,5.93
2018-09-05T18:43:48.722Z,4.03
2018-09-05T18:46:18.061Z,4.57
2018-09-05T18:48:47.107Z,8.67
2018-09-05T18:51:17.693Z,7.33
2018-09-05T18:53:46.892Z,3.40
2018-09-05T18:56:15.932Z,3.00
2018-09-05T18:58:45.318Z,3.77
2018-09-05T19:01:14.380Z,5.07
2018-09-05T19:03:43.425Z,2.80
2018-09-05T19:06:12.573Z,1.73
2018-09-05T19:08:41.859Z,4.60
2018-09-05T19:11:11.851Z,2.50
2018-09-05T19:13:41.202Z,2.27
2018-09-05T19:16:10.241Z,4.37
2018-09-05T19:18:40.649Z,5.17
2018-09-05T19:21:09.827Z,5.20
2018-09-05T19:23:40.459Z,4.37
2018-09-05T19:26:10.533Z,4.30
2018-09-05T19:28:39.719Z,7.53
2018-09-05T19:31:08.910Z,4.30
2018-09-05T19:33:38.956Z,4.23
2018-09-05T19:36:08.081Z,5.10
2018-09-05T19:38:37.145Z,6.00
2018-09-05T19:41:06.276Z,6.00
2018-09-05T19:43:35.339Z,5.33
2018-09-05T19:46:05.078Z,4.13
2018-09-05T19:48:34.580Z,3.90
2018-09-05T19:51:03.693Z,5.13
2018-09-05T19:53:32.772Z,4.60
2018-09-05T19:56:01.817Z,6.40
2018-09-05T19:58:30.876Z,3.33
2018-09-05T20:00:59.877Z,4.83
2018-09-05T20:03:28.951Z,3.90
2018-09-05T20:05:58.169Z,6.60
2018-09-05T20:08:27.316Z,6.50
2018-09-05T20:11:07.692Z,6.00
2018-09-05T20:13:36.850Z,3.13
2018-09-05T20:16:06.015Z,5.30
2018-09-05T20:18:35.040Z,5.23
2018-09-05T20:21:04.285Z,3.27
2018-09-05T20:23:33.467Z,8.13
2018-09-05T20:26:02.451Z,4.33
2018-09-05T20:28:31.462Z,4.43
2018-09-05T20:31:00.657Z,4.57
2018-09-05T20:33:29.663Z,4.20
2018-09-05T20:35:58.751Z,4.23
2018-09-05T20:38:28.746Z,4.40
2018-09-05T20:40:58.278Z,6.13
2018-09-05T20:43:27.377Z,5.17
2018-09-05T20:45:56.588Z,2.73
2018-09-05T20:48:25.819Z,2.60
2018-09-05T20:50:54.905Z,3.53
2018-09-05T20:53:24.038Z,11.17
2018-09-05T20:55:53.218Z,6.20
2018-09-05T20:58:22.409Z,5.90
2018-09-05T21:00:51.742Z,5.70
2018-09-05T21:03:23.398Z,4.60
2018-09-05T21:05:52.476Z,7.20
2018-09-05T21:08:21.606Z,2.97
2018-09-05T21:10:50.712Z,5.97
2018-09-05T21:13:20.719Z,2.43
2018-09-05T21:15:49.780Z,6.50
2018-09-05T21:18:19.055Z,5.10
2018-09-05T21:20:48.424Z,7.07
2018-09-05T21:23:17.602Z,5.10
2018-09-05T21:25:47.694Z,3.50
2018-09-05T21:28:16.744Z,3.00
2018-09-05T21:30:45.782Z,5.97
2018-09-05T21:33:14.902Z,3.63
2018-09-05T21:35:43.946Z,10.17
2018-09-05T21:38:13.951Z,7.43
2018-09-05T21:40:43.186Z,5.33
2018-09-05T21:43:12.313Z,3.10
2018-09-05T21:45:41.427Z,3.37
2018-09-05T21:48:10.664Z,6.23
2018-09-05T21:50:40.976Z,3.57
2018-09-05T21:53:10.041Z,4.73
2018-09-05T21:55:39.169Z,5.27
2018-09-05T21:58:08.209Z,4.77
2018-09-05T22:00:37.483Z,8.67
2018-09-05T22:03:06.769Z,6.87
2018-09-05T22:05:35.928Z,2.37
2018-09-05T22:08:09.422Z,5.93
2018-09-05T22:10:38.600Z,4.53
2018-09-05T22:13:07.705Z,8.63
2018-09-05T22:15:42.106Z,4.33
2018-09-05T22:18:11.103Z,2.63
2018-09-05T22:20:54.719Z,2.70
2018-09-05T22:23:23.808Z,2.20
2018-09-05T22:26:06.773Z,5.43
2018-09-05T22:28:50.783Z,3.67
2018-09-05T22:31:19.991Z,4.50
2018-09-05T22:34:03.573Z,5.33
2018-09-05T22:36:46.895Z,5.40
2018-09-05T22:39:28.663Z,4.20
2018-09-05T22:41:57.793Z,2.87
2018-09-05T22:44:45.075Z,1.70
2018-09-05T22:47:33.966Z,3.73
2018-09-05T22:50:28.634Z,5.30
2018-09-05T22:53:22.236Z,3.03
2018-09-05T23:00:20.644Z,6.93
2018-09-05T23:04:09.670Z,5.70
2018-09-05T23:07:19.985Z,6.77
2018-09-05T23:09:59.711Z,2.33
2018-09-05T23:12:46.657Z,4.87
2018-09-05T23:16:28.286Z,2.37
2018-09-05T23:21:17.056Z,5.10
2018-09-05T23:23:59.871Z,5.30
2018-09-05T23:26:29.175Z,5.27
2018-09-05T23:28:58.327Z,6.77
2018-09-05T23:31:27.566Z,2.53
2018-09-05T23:33:56.748Z,3.37
2018-09-05T23:36:26.200Z,10.30
2018-09-05T23:38:55.311Z,4.23
2018-09-05T23:41:24.388Z,5.63
2018-09-05T23:43:53.495Z,3.77
2018-09-05T23:46:22.556Z,4.13
2018-09-05T23:48:51.685Z,4.33
2018-09-05T23:51:20.749Z,6.13
2018-09-05T23:53:49.754Z,5.73
2018-09-05T23:56:18.921Z,7.43
2018-09-05T23:58:48.038Z,5.03
